< < Back
Terminal Aerodrome Forecast


Current Version              Previous Versions:   1  2  3  4  5  6  7  8  9  

Terminal Aerodrome Forecast

023
FTUS42 KTAE 260543
TAFVLD
TAF
KVLD 260543Z 2606/2706 24003KT P6SM FEW060
     FM262100 06005KT 6SM TSRA SCT025CB BKN040
     FM270100 VRB03KT P6SM SCT040 BKN250=

Latest METAR

515
SAUS70 KWBC 262200 RRI
MTRVLD
METAR KVLD 262153Z 04004KT 10SM SCT150 27/23 A3010 RMK AO2 SLP197
T02670228


USA.gov is the U.S. government's official web portal to all federal, state and local government web resources and services.